sensor_id;sensor_type;location;lat;lon;timestamp;P1;durP1;ratioP1;P2;durP2;ratioP2
60464;SDS011;46314;52.392;9.758;2023-07-30T00:00:38;3.55;;;2.50;;
60464;SDS011;46314;52.392;9.758;2023-07-30T00:03:05;3.10;;;2.10;;
60464;SDS011;46314;52.392;9.758;2023-07-30T00:05:31;5.30;;;2.20;;
60464;SDS011;46314;52.392;9.758;2023-07-30T00:07:58;6.25;;;2.58;;
60464;SDS011;46314;52.392;9.758;2023-07-30T00:10:24;2.92;;;2.25;;
60464;SDS011;46314;52.392;9.758;2023-07-30T00:12:52;3.05;;;2.45;;
60464;SDS011;46314;52.392;9.758;2023-07-30T00:15:19;5.10;;;2.55;;
60464;SDS011;46314;52.392;9.758;2023-07-30T00:17:47;2.72;;;2.15;;
60464;SDS011;46314;52.392;9.758;2023-07-30T00:20:14;4.78;;;2.33;;
60464;SDS011;46314;52.392;9.758;2023-07-30T00:22:41;5.35;;;2.72;;
60464;SDS011;46314;52.392;9.758;2023-07-30T00:25:07;2.70;;;2.45;;
60464;SDS011;46314;52.392;9.758;2023-07-30T00:27:34;2.75;;;2.30;;
60464;SDS011;46314;52.392;9.758;2023-07-30T00:30:02;3.47;;;2.47;;
60464;SDS011;46314;52.392;9.758;2023-07-30T00:32:29;3.70;;;2.45;;
60464;SDS011;46314;52.392;9.758;2023-07-30T00:34:55;3.67;;;2.70;;
60464;SDS011;46314;52.392;9.758;2023-07-30T00:37:22;4.28;;;3.03;;
60464;SDS011;46314;52.392;9.758;2023-07-30T00:39:48;5.65;;;3.00;;
60464;SDS011;46314;52.392;9.758;2023-07-30T00:42:15;2.80;;;2.55;;
60464;SDS011;46314;52.392;9.758;2023-07-30T00:44:41;4.82;;;2.97;;
60464;SDS011;46314;52.392;9.758;2023-07-30T00:47:09;3.70;;;2.53;;
60464;SDS011;46314;52.392;9.758;2023-07-30T00:49:36;3.85;;;2.70;;
60464;SDS011;46314;52.392;9.758;2023-07-30T00:52:03;3.72;;;2.90;;
60464;SDS011;46314;52.392;9.758;2023-07-30T00:54:30;4.28;;;2.67;;
60464;SDS011;46314;52.392;9.758;2023-07-30T00:56:57;3.38;;;2.50;;
60464;SDS011;46314;52.392;9.758;2023-07-30T00:59:23;3.83;;;2.58;;
60464;SDS011;46314;52.392;9.758;2023-07-30T01:01:51;3.83;;;2.60;;
60464;SDS011;46314;52.392;9.758;2023-07-30T01:04:19;3.25;;;2.30;;
60464;SDS011;46314;52.392;9.758;2023-07-30T01:06:46;5.53;;;2.47;;
60464;SDS011;46314;52.392;9.758;2023-07-30T01:09:12;3.70;;;2.60;;
60464;SDS011;46314;52.392;9.758;2023-07-30T01:11:40;4.35;;;2.53;;
60464;SDS011;46314;52.392;9.758;2023-07-30T01:14:08;3.03;;;2.25;;
60464;SDS011;46314;52.392;9.758;2023-07-30T01:16:36;2.45;;;2.20;;
60464;SDS011;46314;52.392;9.758;2023-07-30T01:19:02;4.38;;;2.33;;
60464;SDS011;46314;52.392;9.758;2023-07-30T01:21:32;3.88;;;2.70;;
60464;SDS011;46314;52.392;9.758;2023-07-30T01:23:58;3.08;;;2.60;;
60464;SDS011;46314;52.392;9.758;2023-07-30T01:26:27;3.88;;;2.50;;
60464;SDS011;46314;52.392;9.758;2023-07-30T01:29:00;4.30;;;2.47;;
60464;SDS011;46314;52.392;9.758;2023-07-30T01:31:30;3.92;;;2.10;;
60464;SDS011;46314;52.392;9.758;2023-07-30T01:33:59;2.55;;;2.10;;
60464;SDS011;46314;52.392;9.758;2023-07-30T01:36:29;3.70;;;2.63;;
60464;SDS011;46314;52.392;9.758;2023-07-30T01:38:58;3.13;;;2.58;;
60464;SDS011;46314;52.392;9.758;2023-07-30T01:41:25;3.83;;;2.55;;
60464;SDS011;46314;52.392;9.758;2023-07-30T01:43:53;3.20;;;2.90;;
60464;SDS011;46314;52.392;9.758;2023-07-30T01:46:19;4.45;;;3.40;;
60464;SDS011;46314;52.392;9.758;2023-07-30T01:48:46;3.83;;;2.42;;
60464;SDS011;46314;52.392;9.758;2023-07-30T01:51:12;3.25;;;2.80;;
60464;SDS011;46314;52.392;9.758;2023-07-30T01:53:39;5.05;;;2.88;;
60464;SDS011;46314;52.392;9.758;2023-07-30T01:56:07;4.57;;;3.20;;
60464;SDS011;46314;52.392;9.758;2023-07-30T01:58:33;4.25;;;3.50;;
60464;SDS011;46314;52.392;9.758;2023-07-30T02:01:00;8.63;;;3.67;;
60464;SDS011;46314;52.392;9.758;2023-07-30T02:03:26;5.22;;;4.05;;
60464;SDS011;46314;52.392;9.758;2023-07-30T02:05:53;4.32;;;3.47;;
60464;SDS011;46314;52.392;9.758;2023-07-30T02:08:19;6.72;;;3.75;;
60464;SDS011;46314;52.392;9.758;2023-07-30T02:10:53;4.05;;;3.65;;
60464;SDS011;46314;52.392;9.758;2023-07-30T02:13:22;4.25;;;3.50;;
60464;SDS011;46314;52.392;9.758;2023-07-30T02:15:49;5.22;;;3.80;;
60464;SDS011;46314;52.392;9.758;2023-07-30T02:18:16;4.60;;;3.60;;
60464;SDS011;46314;52.392;9.758;2023-07-30T02:20:42;5.18;;;3.30;;
60464;SDS011;46314;52.392;9.758;2023-07-30T02:23:09;4.72;;;3.42;;
60464;SDS011;46314;52.392;9.758;2023-07-30T02:25:36;5.22;;;3.03;;
60464;SDS011;46314;52.392;9.758;2023-07-30T02:28:03;4.43;;;3.78;;
60464;SDS011;46314;52.392;9.758;2023-07-30T02:30:31;5.70;;;3.13;;
60464;SDS011;46314;52.392;9.758;2023-07-30T02:32:59;5.35;;;3.70;;
60464;SDS011;46314;52.392;9.758;2023-07-30T02:35:25;4.55;;;4.05;;
60464;SDS011;46314;52.392;9.758;2023-07-30T02:37:52;5.47;;;4.13;;
60464;SDS011;46314;52.392;9.758;2023-07-30T02:40:18;4.90;;;3.78;;
60464;SDS011;46314;52.392;9.758;2023-07-30T02:42:45;4.55;;;3.50;;
60464;SDS011;46314;52.392;9.758;2023-07-30T02:45:11;6.00;;;3.47;;
60464;SDS011;46314;52.392;9.758;2023-07-30T02:47:39;4.18;;;3.47;;
60464;SDS011;46314;52.392;9.758;2023-07-30T02:50:06;5.78;;;3.60;;
60464;SDS011;46314;52.392;9.758;2023-07-30T02:52:33;4.22;;;3.30;;
60464;SDS011;46314;52.392;9.758;2023-07-30T02:54:59;4.88;;;3.47;;
60464;SDS011;46314;52.392;9.758;2023-07-30T02:57:25;6.30;;;3.05;;
60464;SDS011;46314;52.392;9.758;2023-07-30T02:59:52;5.32;;;3.03;;
60464;SDS011;46314;52.392;9.758;2023-07-30T03:02:19;5.30;;;2.88;;
60464;SDS011;46314;52.392;9.758;2023-07-30T03:04:47;4.85;;;3.10;;
60464;SDS011;46314;52.392;9.758;2023-07-30T03:07:13;3.55;;;2.78;;
60464;SDS011;46314;52.392;9.758;2023-07-30T03:09:40;4.40;;;2.78;;
60464;SDS011;46314;52.392;9.758;2023-07-30T03:12:07;5.85;;;2.92;;
60464;SDS011;46314;52.392;9.758;2023-07-30T03:14:34;4.20;;;2.72;;
60464;SDS011;46314;52.392;9.758;2023-07-30T03:17:00;3.67;;;3.05;;
60464;SDS011;46314;52.392;9.758;2023-07-30T03:19:27;6.10;;;3.45;;
60464;SDS011;46314;52.392;9.758;2023-07-30T03:21:54;5.38;;;3.00;;
60464;SDS011;46314;52.392;9.758;2023-07-30T03:24:21;5.80;;;2.83;;
60464;SDS011;46314;52.392;9.758;2023-07-30T03:26:47;4.38;;;2.83;;
60464;SDS011;46314;52.392;9.758;2023-07-30T03:29:14;4.70;;;3.10;;
60464;SDS011;46314;52.392;9.758;2023-07-30T03:31:41;5.45;;;2.55;;
60464;SDS011;46314;52.392;9.758;2023-07-30T03:34:08;5.65;;;3.35;;
60464;SDS011;46314;52.392;9.758;2023-07-30T03:36:34;6.03;;;3.10;;
60464;SDS011;46314;52.392;9.758;2023-07-30T03:39:02;6.13;;;2.63;;
60464;SDS011;46314;52.392;9.758;2023-07-30T03:41:29;5.05;;;3.03;;
60464;SDS011;46314;52.392;9.758;2023-07-30T03:43:55;5.15;;;2.83;;
60464;SDS011;46314;52.392;9.758;2023-07-30T03:46:21;7.75;;;3.10;;
60464;SDS011;46314;52.392;9.758;2023-07-30T03:48:48;5.25;;;2.70;;
60464;SDS011;46314;52.392;9.758;2023-07-30T03:51:14;8.48;;;2.97;;
60464;SDS011;46314;52.392;9.758;2023-07-30T03:53:41;4.78;;;2.50;;
60464;SDS011;46314;52.392;9.758;2023-07-30T03:56:09;5.63;;;2.72;;
60464;SDS011;46314;52.392;9.758;2023-07-30T03:58:35;7.70;;;2.90;;
60464;SDS011;46314;52.392;9.758;2023-07-30T04:01:02;6.97;;;3.47;;
60464;SDS011;46314;52.392;9.758;2023-07-30T04:03:28;6.60;;;3.15;;
60464;SDS011;46314;52.392;9.758;2023-07-30T04:05:55;7.47;;;3.33;;
60464;SDS011;46314;52.392;9.758;2023-07-30T04:08:22;6.95;;;3.30;;
60464;SDS011;46314;52.392;9.758;2023-07-30T04:10:48;5.05;;;2.83;;
60464;SDS011;46314;52.392;9.758;2023-07-30T04:13:16;4.75;;;3.20;;
60464;SDS011;46314;52.392;9.758;2023-07-30T04:15:42;6.63;;;2.72;;
60464;SDS011;46314;52.392;9.758;2023-07-30T04:18:09;8.40;;;2.78;;
60464;SDS011;46314;52.392;9.758;2023-07-30T04:20:35;4.97;;;2.72;;
60464;SDS011;46314;52.392;9.758;2023-07-30T04:23:02;5.72;;;2.55;;
60464;SDS011;46314;52.392;9.758;2023-07-30T04:25:28;5.57;;;2.90;;
60464;SDS011;46314;52.392;9.758;2023-07-30T04:27:55;7.40;;;3.15;;
60464;SDS011;46314;52.392;9.758;2023-07-30T04:30:24;9.45;;;3.97;;
60464;SDS011;46314;52.392;9.758;2023-07-30T04:32:51;8.63;;;3.90;;
60464;SDS011;46314;52.392;9.758;2023-07-30T04:35:18;6.63;;;3.60;;
60464;SDS011;46314;52.392;9.758;2023-07-30T04:37:44;7.50;;;3.65;;
60464;SDS011;46314;52.392;9.758;2023-07-30T04:40:11;6.93;;;3.70;;
60464;SDS011;46314;52.392;9.758;2023-07-30T04:42:37;9.80;;;3.83;;
60464;SDS011;46314;52.392;9.758;2023-07-30T04:45:04;6.55;;;3.40;;
60464;SDS011;46314;52.392;9.758;2023-07-30T04:47:33;7.13;;;3.25;;
60464;SDS011;46314;52.392;9.758;2023-07-30T04:50:00;6.80;;;3.80;;
60464;SDS011;46314;52.392;9.758;2023-07-30T04:52:26;6.53;;;3.63;;
60464;SDS011;46314;52.392;9.758;2023-07-30T04:54:52;4.63;;;3.28;;
60464;SDS011;46314;52.392;9.758;2023-07-30T04:57:19;8.98;;;3.92;;
60464;SDS011;46314;52.392;9.758;2023-07-30T04:59:45;9.73;;;3.92;;
60464;SDS011;46314;52.392;9.758;2023-07-30T05:02:12;7.85;;;3.53;;
60464;SDS011;46314;52.392;9.758;2023-07-30T05:04:40;5.10;;;3.65;;
60464;SDS011;46314;52.392;9.758;2023-07-30T05:07:06;7.68;;;4.28;;
60464;SDS011;46314;52.392;9.758;2023-07-30T05:09:33;6.10;;;3.85;;
60464;SDS011;46314;52.392;9.758;2023-07-30T05:11:59;14.02;;;4.90;;
60464;SDS011;46314;52.392;9.758;2023-07-30T05:14:26;8.15;;;4.32;;
60464;SDS011;46314;52.392;9.758;2023-07-30T05:16:52;8.77;;;3.92;;
60464;SDS011;46314;52.392;9.758;2023-07-30T05:19:19;6.93;;;3.20;;
60464;SDS011;46314;52.392;9.758;2023-07-30T05:21:47;8.10;;;3.88;;
60464;SDS011;46314;52.392;9.758;2023-07-30T05:24:13;7.47;;;4.18;;
60464;SDS011;46314;52.392;9.758;2023-07-30T05:26:40;6.28;;;4.10;;
60464;SDS011;46314;52.392;9.758;2023-07-30T05:29:06;6.28;;;3.75;;
60464;SDS011;46314;52.392;9.758;2023-07-30T05:31:33;7.80;;;4.10;;
60464;SDS011;46314;52.392;9.758;2023-07-30T05:34:00;6.53;;;4.15;;
60464;SDS011;46314;52.392;9.758;2023-07-30T05:36:26;8.25;;;4.10;;
60464;SDS011;46314;52.392;9.758;2023-07-30T05:38:54;9.18;;;5.15;;
60464;SDS011;46314;52.392;9.758;2023-07-30T05:41:20;8.15;;;4.50;;
60464;SDS011;46314;52.392;9.758;2023-07-30T05:43:47;8.75;;;4.50;;
60464;SDS011;46314;52.392;9.758;2023-07-30T05:46:13;5.57;;;4.40;;
60464;SDS011;46314;52.392;9.758;2023-07-30T05:48:40;6.65;;;4.28;;
60464;SDS011;46314;52.392;9.758;2023-07-30T05:51:07;7.18;;;4.78;;
60464;SDS011;46314;52.392;9.758;2023-07-30T05:53:33;8.82;;;4.53;;
60464;SDS011;46314;52.392;9.758;2023-07-30T05:56:01;9.13;;;4.57;;
60464;SDS011;46314;52.392;9.758;2023-07-30T05:58:27;9.40;;;4.50;;
60464;SDS011;46314;52.392;9.758;2023-07-30T06:00:54;8.98;;;4.35;;
60464;SDS011;46314;52.392;9.758;2023-07-30T06:03:20;7.53;;;4.78;;
60464;SDS011;46314;52.392;9.758;2023-07-30T06:05:47;7.95;;;4.15;;
60464;SDS011;46314;52.392;9.758;2023-07-30T06:08:13;8.43;;;4.32;;
60464;SDS011;46314;52.392;9.758;2023-07-30T06:10:40;8.55;;;4.25;;
60464;SDS011;46314;52.392;9.758;2023-07-30T06:13:08;9.77;;;5.00;;
60464;SDS011;46314;52.392;9.758;2023-07-30T06:15:34;6.20;;;4.53;;
60464;SDS011;46314;52.392;9.758;2023-07-30T06:18:01;7.50;;;4.22;;
60464;SDS011;46314;52.392;9.758;2023-07-30T06:20:28;5.57;;;3.78;;
60464;SDS011;46314;52.392;9.758;2023-07-30T06:22:55;7.72;;;3.70;;
60464;SDS011;46314;52.392;9.758;2023-07-30T06:25:21;5.47;;;3.60;;
60464;SDS011;46314;52.392;9.758;2023-07-30T06:27:48;9.50;;;3.92;;
60464;SDS011;46314;52.392;9.758;2023-07-30T06:30:15;8.30;;;3.83;;
60464;SDS011;46314;52.392;9.758;2023-07-30T06:32:42;8.65;;;4.28;;
60464;SDS011;46314;52.392;9.758;2023-07-30T06:35:09;8.30;;;3.75;;
60464;SDS011;46314;52.392;9.758;2023-07-30T06:37:35;7.70;;;3.80;;
60464;SDS011;46314;52.392;9.758;2023-07-30T06:40:02;6.95;;;3.97;;
60464;SDS011;46314;52.392;9.758;2023-07-30T06:42:29;8.98;;;4.32;;
60464;SDS011;46314;52.392;9.758;2023-07-30T06:44:55;9.25;;;3.85;;
60464;SDS011;46314;52.392;9.758;2023-07-30T06:47:23;9.57;;;3.80;;
60464;SDS011;46314;52.392;9.758;2023-07-30T06:49:50;7.57;;;3.50;;
60464;SDS011;46314;52.392;9.758;2023-07-30T06:52:16;6.55;;;3.58;;
60464;SDS011;46314;52.392;9.758;2023-07-30T06:54:43;6.80;;;3.35;;
60464;SDS011;46314;52.392;9.758;2023-07-30T06:57:09;5.28;;;3.05;;
60464;SDS011;46314;52.392;9.758;2023-07-30T06:59:35;8.50;;;4.00;;
60464;SDS011;46314;52.392;9.758;2023-07-30T07:02:02;4.25;;;2.83;;
60464;SDS011;46314;52.392;9.758;2023-07-30T07:04:30;9.13;;;3.47;;
60464;SDS011;46314;52.392;9.758;2023-07-30T07:06:57;8.23;;;3.10;;
60464;SDS011;46314;52.392;9.758;2023-07-30T07:09:23;7.57;;;3.80;;
60464;SDS011;46314;52.392;9.758;2023-07-30T07:11:50;7.20;;;3.70;;
60464;SDS011;46314;52.392;9.758;2023-07-30T07:14:16;5.05;;;2.70;;
60464;SDS011;46314;52.392;9.758;2023-07-30T07:16:43;5.63;;;2.80;;
60464;SDS011;46314;52.392;9.758;2023-07-30T07:19:10;6.53;;;3.55;;
60464;SDS011;46314;52.392;9.758;2023-07-30T07:21:38;4.43;;;2.60;;
60464;SDS011;46314;52.392;9.758;2023-07-30T07:24:05;4.15;;;2.40;;
60464;SDS011;46314;52.392;9.758;2023-07-30T07:26:31;5.18;;;2.53;;
60464;SDS011;46314;52.392;9.758;2023-07-30T07:28:58;6.35;;;2.53;;
60464;SDS011;46314;52.392;9.758;2023-07-30T07:31:24;5.70;;;2.08;;
60464;SDS011;46314;52.392;9.758;2023-07-30T07:33:51;6.85;;;2.47;;
60464;SDS011;46314;52.392;9.758;2023-07-30T07:36:17;6.50;;;2.40;;
60464;SDS011;46314;52.392;9.758;2023-07-30T07:38:45;5.90;;;2.40;;
60464;SDS011;46314;52.392;9.758;2023-07-30T07:41:13;3.88;;;2.20;;
60464;SDS011;46314;52.392;9.758;2023-07-30T07:43:46;4.30;;;2.28;;
60464;SDS011;46314;52.392;9.758;2023-07-30T07:46:13;5.93;;;2.22;;
60464;SDS011;46314;52.392;9.758;2023-07-30T07:48:40;5.13;;;2.45;;
60464;SDS011;46314;52.392;9.758;2023-07-30T07:51:07;4.13;;;2.78;;
60464;SDS011;46314;52.392;9.758;2023-07-30T07:53:34;7.75;;;2.95;;
60464;SDS011;46314;52.392;9.758;2023-07-30T07:56:01;8.43;;;3.03;;
60464;SDS011;46314;52.392;9.758;2023-07-30T07:58:29;6.20;;;2.92;;
60464;SDS011;46314;52.392;9.758;2023-07-30T08:00:55;10.05;;;2.80;;
60464;SDS011;46314;52.392;9.758;2023-07-30T08:03:22;3.67;;;2.75;;
60464;SDS011;46314;52.392;9.758;2023-07-30T08:05:49;6.13;;;2.45;;
60464;SDS011;46314;52.392;9.758;2023-07-30T08:08:16;7.07;;;2.78;;
60464;SDS011;46314;52.392;9.758;2023-07-30T08:10:43;6.65;;;2.58;;
60464;SDS011;46314;52.392;9.758;2023-07-30T08:13:10;4.97;;;2.88;;
60464;SDS011;46314;52.392;9.758;2023-07-30T08:15:37;5.43;;;2.97;;
60464;SDS011;46314;52.392;9.758;2023-07-30T08:18:04;5.90;;;3.13;;
60464;SDS011;46314;52.392;9.758;2023-07-30T08:20:30;6.63;;;3.20;;
60464;SDS011;46314;52.392;9.758;2023-07-30T08:22:57;7.15;;;3.33;;
60464;SDS011;46314;52.392;9.758;2023-07-30T08:25:24;7.18;;;2.90;;
60464;SDS011;46314;52.392;9.758;2023-07-30T08:27:50;6.50;;;3.15;;
60464;SDS011;46314;52.392;9.758;2023-07-30T08:30:18;8.02;;;3.83;;
60464;SDS011;46314;52.392;9.758;2023-07-30T08:32:46;6.40;;;3.60;;
60464;SDS011;46314;52.392;9.758;2023-07-30T08:35:13;6.78;;;3.70;;
60464;SDS011;46314;52.392;9.758;2023-07-30T08:37:39;7.40;;;3.38;;
60464;SDS011;46314;52.392;9.758;2023-07-30T08:40:06;8.35;;;3.72;;
60464;SDS011;46314;52.392;9.758;2023-07-30T08:42:34;9.43;;;3.88;;
60464;SDS011;46314;52.392;9.758;2023-07-30T08:45:01;7.70;;;4.07;;
60464;SDS011;46314;52.392;9.758;2023-07-30T08:47:33;7.70;;;4.13;;
60464;SDS011;46314;52.392;9.758;2023-07-30T08:50:00;6.70;;;4.07;;
60464;SDS011;46314;52.392;9.758;2023-07-30T08:52:26;5.43;;;4.13;;
60464;SDS011;46314;52.392;9.758;2023-07-30T08:54:55;7.50;;;4.22;;
60464;SDS011;46314;52.392;9.758;2023-07-30T08:57:23;6.43;;;3.92;;
60464;SDS011;46314;52.392;9.758;2023-07-30T08:59:53;8.70;;;3.80;;
60464;SDS011;46314;52.392;9.758;2023-07-30T09:02:26;9.68;;;4.65;;
60464;SDS011;46314;52.392;9.758;2023-07-30T09:05:01;6.97;;;4.40;;
60464;SDS011;46314;52.392;9.758;2023-07-30T09:07:29;8.00;;;4.20;;
60464;SDS011;46314;52.392;9.758;2023-07-30T09:09:55;6.30;;;3.97;;
60464;SDS011;46314;52.392;9.758;2023-07-30T09:12:25;9.07;;;4.75;;
60464;SDS011;46314;52.392;9.758;2023-07-30T09:14:52;5.10;;;4.28;;
60464;SDS011;46314;52.392;9.758;2023-07-30T09:17:19;6.47;;;4.30;;
60464;SDS011;46314;52.392;9.758;2023-07-30T09:19:45;5.53;;;4.32;;
60464;SDS011;46314;52.392;9.758;2023-07-30T09:22:14;9.48;;;5.00;;
60464;SDS011;46314;52.392;9.758;2023-07-30T09:27:19;8.18;;;5.78;;
60464;SDS011;46314;52.392;9.758;2023-07-30T09:29:49;18.30;;;6.80;;
60464;SDS011;46314;52.392;9.758;2023-07-30T09:32:17;8.88;;;5.78;;
60464;SDS011;46314;52.392;9.758;2023-07-30T09:34:44;8.63;;;6.50;;
60464;SDS011;46314;52.392;9.758;2023-07-30T09:37:11;8.93;;;6.07;;
60464;SDS011;46314;52.392;9.758;2023-07-30T09:39:39;8.30;;;6.03;;
60464;SDS011;46314;52.392;9.758;2023-07-30T09:42:06;7.65;;;6.55;;
60464;SDS011;46314;52.392;9.758;2023-07-30T09:44:33;9.07;;;6.63;;
60464;SDS011;46314;52.392;9.758;2023-07-30T09:47:00;7.40;;;5.70;;
60464;SDS011;46314;52.392;9.758;2023-07-30T09:49:27;7.28;;;5.60;;
60464;SDS011;46314;52.392;9.758;2023-07-30T09:51:53;8.95;;;6.30;;
60464;SDS011;46314;52.392;9.758;2023-07-30T09:54:20;7.95;;;6.47;;
60464;SDS011;46314;52.392;9.758;2023-07-30T09:56:48;8.00;;;6.88;;
60464;SDS011;46314;52.392;9.758;2023-07-30T09:59:15;8.30;;;5.97;;
60464;SDS011;46314;52.392;9.758;2023-07-30T10:01:43;7.97;;;6.15;;
60464;SDS011;46314;52.392;9.758;2023-07-30T10:04:12;6.80;;;6.10;;
60464;SDS011;46314;52.392;9.758;2023-07-30T10:06:39;8.75;;;5.93;;
60464;SDS011;46314;52.392;9.758;2023-07-30T10:09:09;8.45;;;5.50;;
60464;SDS011;46314;52.392;9.758;2023-07-30T10:11:38;5.85;;;5.35;;
60464;SDS011;46314;52.392;9.758;2023-07-30T10:14:09;8.75;;;7.20;;
60464;SDS011;46314;52.392;9.758;2023-07-30T10:16:35;8.73;;;6.25;;
60464;SDS011;46314;52.392;9.758;2023-07-30T10:19:02;8.30;;;6.45;;
60464;SDS011;46314;52.392;9.758;2023-07-30T10:21:31;9.40;;;7.07;;
60464;SDS011;46314;52.392;9.758;2023-07-30T10:23:59;10.00;;;7.50;;
60464;SDS011;46314;52.392;9.758;2023-07-30T10:26:29;12.13;;;7.85;;
60464;SDS011;46314;52.392;9.758;2023-07-30T10:29:14;9.63;;;7.07;;
60464;SDS011;46314;52.392;9.758;2023-07-30T10:31:42;9.57;;;8.32;;
60464;SDS011;46314;52.392;9.758;2023-07-30T10:34:10;8.52;;;7.65;;
60464;SDS011;46314;52.392;9.758;2023-07-30T10:36:40;11.90;;;8.30;;
60464;SDS011;46314;52.392;9.758;2023-07-30T10:39:12;15.13;;;9.57;;
60464;SDS011;46314;52.392;9.758;2023-07-30T10:41:40;13.65;;;9.57;;
60464;SDS011;46314;52.392;9.758;2023-07-30T10:44:25;11.35;;;8.60;;
60464;SDS011;46314;52.392;9.758;2023-07-30T10:46:53;12.77;;;9.25;;
60464;SDS011;46314;52.392;9.758;2023-07-30T10:49:20;14.40;;;9.45;;
60464;SDS011;46314;52.392;9.758;2023-07-30T10:51:47;12.00;;;9.82;;
60464;SDS011;46314;52.392;9.758;2023-07-30T10:54:14;18.45;;;10.85;;
60464;SDS011;46314;52.392;9.758;2023-07-30T10:56:40;11.25;;;9.85;;
60464;SDS011;46314;52.392;9.758;2023-07-30T10:59:07;11.80;;;10.07;;
60464;SDS011;46314;52.392;9.758;2023-07-30T11:01:37;13.70;;;9.52;;
60464;SDS011;46314;52.392;9.758;2023-07-30T11:04:06;13.18;;;11.32;;
60464;SDS011;46314;52.392;9.758;2023-07-30T11:06:33;12.48;;;10.30;;
60464;SDS011;46314;52.392;9.758;2023-07-30T11:09:00;12.63;;;10.10;;
60464;SDS011;46314;52.392;9.758;2023-07-30T11:11:26;11.60;;;10.50;;
60464;SDS011;46314;52.392;9.758;2023-07-30T11:13:53;13.32;;;10.50;;
60464;SDS011;46314;52.392;9.758;2023-07-30T11:16:21;12.15;;;10.25;;
60464;SDS011;46314;52.392;9.758;2023-07-30T11:18:49;14.63;;;10.52;;
60464;SDS011;46314;52.392;9.758;2023-07-30T11:21:16;16.80;;;11.30;;
60464;SDS011;46314;52.392;9.758;2023-07-30T11:23:44;14.55;;;11.10;;
60464;SDS011;46314;52.392;9.758;2023-07-30T11:26:13;14.02;;;10.52;;
60464;SDS011;46314;52.392;9.758;2023-07-30T11:28:41;13.90;;;10.68;;
60464;SDS011;46314;52.392;9.758;2023-07-30T11:31:08;16.17;;;11.32;;
60464;SDS011;46314;52.392;9.758;2023-07-30T11:33:36;13.85;;;10.32;;
60464;SDS011;46314;52.392;9.758;2023-07-30T11:36:07;16.73;;;10.27;;
60464;SDS011;46314;52.392;9.758;2023-07-30T11:38:36;13.38;;;10.50;;
60464;SDS011;46314;52.392;9.758;2023-07-30T11:41:04;13.30;;;11.50;;
60464;SDS011;46314;52.392;9.758;2023-07-30T11:43:32;17.45;;;11.68;;
60464;SDS011;46314;52.392;9.758;2023-07-30T11:46:08;12.43;;;10.95;;
60464;SDS011;46314;52.392;9.758;2023-07-30T11:48:38;14.38;;;11.85;;
60464;SDS011;46314;52.392;9.758;2023-07-30T11:51:17;13.13;;;11.73;;
60464;SDS011;46314;52.392;9.758;2023-07-30T11:53:45;13.80;;;12.43;;
60464;SDS011;46314;52.392;9.758;2023-07-30T11:56:16;15.90;;;12.60;;
60464;SDS011;46314;52.392;9.758;2023-07-30T11:58:44;13.52;;;12.05;;
60464;SDS011;46314;52.392;9.758;2023-07-30T12:01:10;16.02;;;12.30;;
60464;SDS011;46314;52.392;9.758;2023-07-30T12:03:37;13.13;;;11.07;;
60464;SDS011;46314;52.392;9.758;2023-07-30T12:06:04;14.05;;;12.07;;
60464;SDS011;46314;52.392;9.758;2023-07-30T12:08:33;14.68;;;11.63;;
60464;SDS011;46314;52.392;9.758;2023-07-30T12:11:02;14.55;;;11.00;;
60464;SDS011;46314;52.392;9.758;2023-07-30T12:13:29;13.45;;;11.13;;
60464;SDS011;46314;52.392;9.758;2023-07-30T12:15:56;13.70;;;11.13;;
60464;SDS011;46314;52.392;9.758;2023-07-30T12:18:24;14.65;;;11.65;;
60464;SDS011;46314;52.392;9.758;2023-07-30T12:20:51;17.20;;;10.82;;
60464;SDS011;46314;52.392;9.758;2023-07-30T12:23:19;11.02;;;9.52;;
60464;SDS011;46314;52.392;9.758;2023-07-30T12:25:47;9.13;;;8.23;;
60464;SDS011;46314;52.392;9.758;2023-07-30T12:28:14;10.27;;;7.20;;
60464;SDS011;46314;52.392;9.758;2023-07-30T12:30:40;10.70;;;8.63;;
60464;SDS011;46314;52.392;9.758;2023-07-30T12:33:07;12.38;;;8.30;;
60464;SDS011;46314;52.392;9.758;2023-07-30T12:35:33;10.98;;;8.73;;
60464;SDS011;46314;52.392;9.758;2023-07-30T12:38:00;10.23;;;8.43;;
60464;SDS011;46314;52.392;9.758;2023-07-30T12:40:27;13.50;;;8.10;;
60464;SDS011;46314;52.392;9.758;2023-07-30T12:42:55;9.70;;;7.38;;
60464;SDS011;46314;52.392;9.758;2023-07-30T12:45:23;9.32;;;7.78;;
60464;SDS011;46314;52.392;9.758;2023-07-30T12:47:51;12.10;;;7.68;;
60464;SDS011;46314;52.392;9.758;2023-07-30T12:50:17;8.95;;;7.53;;
60464;SDS011;46314;52.392;9.758;2023-07-30T12:52:44;12.80;;;8.02;;
60464;SDS011;46314;52.392;9.758;2023-07-30T12:55:10;9.77;;;6.97;;
60464;SDS011;46314;52.392;9.758;2023-07-30T12:57:37;8.73;;;6.88;;
60464;SDS011;46314;52.392;9.758;2023-07-30T13:00:06;9.10;;;6.07;;
60464;SDS011;46314;52.392;9.758;2023-07-30T13:02:33;8.18;;;6.60;;
60464;SDS011;46314;52.392;9.758;2023-07-30T13:04:59;7.43;;;6.20;;
60464;SDS011;46314;52.392;9.758;2023-07-30T13:07:26;11.18;;;6.60;;
60464;SDS011;46314;52.392;9.758;2023-07-30T13:10:01;6.65;;;5.95;;
60464;SDS011;46314;52.392;9.758;2023-07-30T13:12:28;7.88;;;5.60;;
60464;SDS011;46314;52.392;9.758;2023-07-30T13:14:55;9.27;;;5.47;;
60464;SDS011;46314;52.392;9.758;2023-07-30T13:17:23;8.50;;;5.75;;
60464;SDS011;46314;52.392;9.758;2023-07-30T13:19:49;7.30;;;5.43;;
60464;SDS011;46314;52.392;9.758;2023-07-30T13:22:16;8.52;;;5.70;;
60464;SDS011;46314;52.392;9.758;2023-07-30T13:24:42;6.72;;;5.65;;
60464;SDS011;46314;52.392;9.758;2023-07-30T13:27:09;8.38;;;6.75;;
60464;SDS011;46314;52.392;9.758;2023-07-30T13:29:35;8.95;;;5.30;;
60464;SDS011;46314;52.392;9.758;2023-07-30T13:32:02;9.00;;;5.15;;
60464;SDS011;46314;52.392;9.758;2023-07-30T13:34:30;7.03;;;5.22;;
60464;SDS011;46314;52.392;9.758;2023-07-30T13:36:57;9.85;;;5.07;;
60464;SDS011;46314;52.392;9.758;2023-07-30T13:39:24;8.90;;;5.20;;
60464;SDS011;46314;52.392;9.758;2023-07-30T13:41:50;8.88;;;5.07;;
60464;SDS011;46314;52.392;9.758;2023-07-30T13:44:17;6.28;;;4.78;;
60464;SDS011;46314;52.392;9.758;2023-07-30T13:46:43;6.22;;;4.45;;
60464;SDS011;46314;52.392;9.758;2023-07-30T13:49:10;8.40;;;5.45;;
60464;SDS011;46314;52.392;9.758;2023-07-30T13:51:37;7.63;;;4.72;;
60464;SDS011;46314;52.392;9.758;2023-07-30T13:54:04;7.60;;;4.43;;
60464;SDS011;46314;52.392;9.758;2023-07-30T13:56:31;9.57;;;4.45;;
60464;SDS011;46314;52.392;9.758;2023-07-30T13:58:57;7.22;;;4.55;;
60464;SDS011;46314;52.392;9.758;2023-07-30T14:01:24;6.15;;;4.25;;
60464;SDS011;46314;52.392;9.758;2023-07-30T14:03:50;6.22;;;4.13;;
60464;SDS011;46314;52.392;9.758;2023-07-30T14:06:17;10.25;;;4.45;;
60464;SDS011;46314;52.392;9.758;2023-07-30T14:08:45;7.32;;;4.13;;
60464;SDS011;46314;52.392;9.758;2023-07-30T14:11:11;6.10;;;4.28;;
60464;SDS011;46314;52.392;9.758;2023-07-30T14:13:38;7.63;;;3.85;;
60464;SDS011;46314;52.392;9.758;2023-07-30T14:16:04;4.13;;;2.80;;
60464;SDS011;46314;52.392;9.758;2023-07-30T14:18:31;8.85;;;3.78;;
60464;SDS011;46314;52.392;9.758;2023-07-30T14:20:57;6.07;;;3.38;;
60464;SDS011;46314;52.392;9.758;2023-07-30T14:23:24;4.78;;;3.17;;
60464;SDS011;46314;52.392;9.758;2023-07-30T14:25:52;5.15;;;2.75;;
60464;SDS011;46314;52.392;9.758;2023-07-30T14:28:18;5.20;;;3.20;;
60464;SDS011;46314;52.392;9.758;2023-07-30T14:30:45;4.43;;;2.60;;
60464;SDS011;46314;52.392;9.758;2023-07-30T14:33:11;5.40;;;2.50;;
60464;SDS011;46314;52.392;9.758;2023-07-30T14:35:38;3.95;;;2.33;;
60464;SDS011;46314;52.392;9.758;2023-07-30T14:38:05;7.40;;;3.03;;
60464;SDS011;46314;52.392;9.758;2023-07-30T14:40:32;5.63;;;2.35;;
60464;SDS011;46314;52.392;9.758;2023-07-30T14:43:00;4.30;;;2.25;;
60464;SDS011;46314;52.392;9.758;2023-07-30T14:45:27;8.00;;;2.60;;